createdAt,value
2019-04-28T00:02:27.796Z,10.10
2019-04-28T00:04:59.047Z,10.10
2019-04-28T00:07:32.221Z,10.20
2019-04-28T00:10:03.383Z,10.10
2019-04-28T00:12:37.698Z,10.10
2019-04-28T00:15:10.843Z,10.10
2019-04-28T00:17:42.529Z,9.90
2019-04-28T00:20:17.214Z,9.70
2019-04-28T00:22:57.418Z,9.60
2019-04-28T00:25:31.264Z,9.40
2019-04-28T00:28:02.903Z,9.20
2019-04-28T00:30:34.511Z,9.10
2019-04-28T00:33:06.138Z,9.00
2019-04-28T00:35:37.763Z,8.90
2019-04-28T00:38:09.035Z,9.00
2019-04-28T00:40:41.354Z,9.00
2019-04-28T00:43:13.071Z,9.00
2019-04-28T00:45:44.403Z,9.10
2019-04-28T00:48:15.974Z,9.20
2019-04-28T00:50:47.594Z,9.40
2019-04-28T00:53:20.650Z,9.40
2019-04-28T00:55:54.040Z,9.40
2019-04-28T00:58:24.876Z,9.50
2019-04-28T01:00:57.887Z,9.70
2019-04-28T01:03:29.507Z,9.80
2019-04-28T01:06:01.876Z,10.00
2019-04-28T01:08:33.464Z,10.10
2019-04-28T01:11:04.949Z,10.30
2019-04-28T01:13:36.214Z,10.40
2019-04-28T01:16:13.455Z,10.60
2019-04-28T01:18:50.263Z,10.70
2019-04-28T01:21:23.137Z,10.70
2019-04-28T01:23:55.300Z,10.70
2019-04-28T01:26:27.213Z,10.70
2019-04-28T01:28:59.667Z,10.90
2019-04-28T01:31:56.024Z,11.00
2019-04-28T01:34:27.225Z,11.10
2019-04-28T01:36:59.846Z,11.10
2019-04-28T01:39:31.516Z,11.20
2019-04-28T01:42:03.459Z,11.20
2019-04-28T01:44:35.015Z,11.20
2019-04-28T01:47:06.354Z,11.10
2019-04-28T01:49:37.601Z,11.00
2019-04-28T01:52:10.411Z,10.90
2019-04-28T01:54:42.621Z,11.00
2019-04-28T01:57:14.096Z,11.00
2019-04-28T01:59:45.325Z,11.00
2019-04-28T02:02:16.729Z,11.00
2019-04-28T02:04:49.757Z,11.10
2019-04-28T02:07:22.258Z,11.10
2019-04-28T02:09:53.573Z,11.20
2019-04-28T02:12:25.106Z,11.20
2019-04-28T02:14:56.623Z,11.20
2019-04-28T02:17:30.363Z,11.10
2019-04-28T02:20:01.525Z,11.00
2019-04-28T02:22:40.756Z,11.00
2019-04-28T02:25:12.724Z,11.00
2019-04-28T02:27:44.317Z,10.90
2019-04-28T02:30:15.870Z,10.80
2019-04-28T02:32:47.095Z,10.80
2019-04-28T02:35:21.166Z,10.70
2019-04-28T02:37:51.486Z,10.70
2019-04-28T02:40:23.172Z,10.70
2019-04-28T02:42:54.857Z,10.70
2019-04-28T02:45:26.134Z,10.70
2019-04-28T02:48:01.194Z,10.70
2019-04-28T02:50:50.935Z,10.60
2019-04-28T02:53:27.551Z,10.50
2019-04-28T02:56:00.810Z,10.50
2019-04-28T02:58:32.367Z,10.50
2019-04-28T03:01:12.977Z,10.50
2019-04-28T03:03:35.900Z,10.60
2019-04-28T03:06:06.924Z,10.70
2019-04-28T03:08:40.523Z,10.70
2019-04-28T03:11:12.551Z,10.70
2019-04-28T03:13:43.831Z,10.70
2019-04-28T03:16:15.416Z,10.60
2019-04-28T03:18:47.153Z,10.60
2019-04-28T03:21:21.175Z,10.60
2019-04-28T03:23:52.254Z,10.60
2019-04-28T03:26:50.932Z,10.60
2019-04-28T03:29:31.647Z,10.50
2019-04-28T03:32:31.104Z,10.60
2019-04-28T03:34:53.020Z,10.60
2019-04-28T03:37:24.019Z,10.70
2019-04-28T03:39:54.477Z,10.80
2019-04-28T03:42:25.741Z,10.80
2019-04-28T03:45:01.055Z,10.80
2019-04-28T03:47:33.440Z,10.80
2019-04-28T03:50:05.276Z,10.60
2019-04-28T03:52:36.541Z,10.50
2019-04-28T03:55:07.833Z,10.50
2019-04-28T03:57:41.241Z,10.60
2019-04-28T04:00:12.008Z,10.70
2019-04-28T04:02:43.647Z,10.70
2019-04-28T04:05:15.516Z,10.70
2019-04-28T04:07:47.175Z,10.70
2019-04-28T04:10:50.267Z,10.70
2019-04-28T04:13:36.848Z,10.70
2019-04-28T04:16:36.254Z,10.60
2019-04-28T04:19:10.429Z,10.60
2019-04-28T04:21:41.324Z,10.60
2019-04-28T04:24:12.521Z,10.60
2019-04-28T04:26:43.789Z,10.50
2019-04-28T04:29:15.355Z,10.50
2019-04-28T04:31:46.938Z,10.50
2019-04-28T04:34:20.169Z,10.50
2019-04-28T04:36:51.389Z,10.40
2019-04-28T04:39:23.244Z,10.40
2019-04-28T04:41:54.800Z,10.30
2019-04-28T04:44:26.091Z,10.30
2019-04-28T04:46:57.594Z,10.20
2019-04-28T04:49:31.554Z,10.10
2019-04-28T04:52:01.971Z,10.00
2019-04-28T04:54:36.574Z,9.90
2019-04-28T04:57:06.147Z,9.90
2019-04-28T04:59:39.983Z,9.90
2019-04-28T05:02:29.301Z,9.80
2019-04-28T05:05:05.819Z,9.80
2019-04-28T05:07:37.021Z,9.80
2019-04-28T05:10:10.439Z,9.80
2019-04-28T05:12:41.578Z,9.90
2019-04-28T05:15:14.311Z,9.90
2019-04-28T05:17:45.539Z,9.80
2019-04-28T05:20:16.710Z,9.70
2019-04-28T05:22:57.575Z,9.70
2019-04-28T05:25:34.519Z,9.70
2019-04-28T05:28:05.866Z,9.80
2019-04-28T05:30:39.685Z,9.90
2019-04-28T05:33:10.944Z,9.90
2019-04-28T05:35:42.998Z,9.90
2019-04-28T05:38:14.220Z,9.90
2019-04-28T05:40:45.507Z,9.90
2019-04-28T05:43:16.993Z,9.90
2019-04-28T05:45:49.879Z,9.80
2019-04-28T05:48:38.257Z,9.80
2019-04-28T05:51:11.897Z,9.80
2019-04-28T05:53:51.304Z,9.80
2019-04-28T05:56:43.539Z,9.90
2019-04-28T05:59:36.801Z,9.90
2019-04-28T06:02:13.291Z,9.80
2019-04-28T06:04:44.483Z,9.70
2019-04-28T06:07:23.215Z,9.80
2019-04-28T06:09:55.304Z,9.80
2019-04-28T06:12:26.543Z,9.90
2019-04-28T06:14:57.813Z,9.90
2019-04-28T06:17:29.672Z,10.00
2019-04-28T06:20:01.695Z,9.90
2019-04-28T06:22:32.871Z,9.90
2019-04-28T06:25:04.594Z,9.80
2019-04-28T06:27:35.845Z,9.90
2019-04-28T06:30:07.772Z,9.90
2019-04-28T06:32:39.470Z,9.90
2019-04-28T06:35:11.256Z,10.00
2019-04-28T06:37:42.548Z,10.00
2019-04-28T06:40:13.995Z,9.90
2019-04-28T06:42:45.741Z,9.80
2019-04-28T06:45:18.271Z,9.70
2019-04-28T06:47:49.922Z,9.70
2019-04-28T06:50:21.271Z,9.70
2019-04-28T06:52:52.922Z,9.70
2019-04-28T06:55:24.935Z,9.70
2019-04-28T06:57:56.579Z,9.60
2019-04-28T07:00:27.824Z,9.60
2019-04-28T07:02:59.134Z,9.60
2019-04-28T07:05:30.415Z,9.60
2019-04-28T07:08:01.972Z,9.60
2019-04-28T07:10:33.531Z,9.60
2019-04-28T07:13:06.754Z,9.60
2019-04-28T07:15:38.850Z,9.60
2019-04-28T07:18:10.179Z,9.60
2019-04-28T07:21:00.826Z,9.60
2019-04-28T07:23:33.103Z,9.50
2019-04-28T07:26:04.498Z,9.50
2019-04-28T07:28:35.914Z,9.40
2019-04-28T07:31:08.042Z,9.40
2019-04-28T07:33:40.074Z,9.40
2019-04-28T07:36:11.722Z,9.50
2019-04-28T07:38:43.753Z,9.50
2019-04-28T07:41:15.129Z,9.50
2019-04-28T07:43:47.693Z,9.50
2019-04-28T07:46:19.366Z,9.50
2019-04-28T07:48:52.515Z,9.50
2019-04-28T07:51:26.309Z,9.50
2019-04-28T07:54:06.391Z,9.60
2019-04-28T07:56:37.580Z,9.70
2019-04-28T07:59:09.236Z,9.80
2019-04-28T08:01:40.447Z,9.90
2019-04-28T08:04:12.443Z,9.90
2019-04-28T08:06:45.004Z,10.00
2019-04-28T08:09:17.616Z,10.00
2019-04-28T08:11:49.290Z,10.00
2019-04-28T08:14:20.766Z,10.10
2019-04-28T08:16:52.298Z,10.10
2019-04-28T08:19:23.932Z,10.20
2019-04-28T08:21:55.218Z,10.20
2019-04-28T08:24:26.515Z,10.30
2019-04-28T08:26:57.702Z,10.40
2019-04-28T08:29:29.904Z,10.30
2019-04-28T08:32:18.422Z,10.40
2019-04-28T08:34:50.047Z,10.40
2019-04-28T08:37:21.665Z,10.40
2019-04-28T08:39:53.526Z,10.40
2019-04-28T08:42:24.719Z,10.50
2019-04-28T08:44:56.012Z,10.50
2019-04-28T08:47:27.569Z,10.50
2019-04-28T08:49:59.224Z,10.50
2019-04-28T08:52:30.790Z,10.50
2019-04-28T08:55:02.371Z,10.60
2019-04-28T08:57:34.353Z,10.70
2019-04-28T09:00:07.992Z,10.80
2019-04-28T09:02:39.719Z,10.80
2019-04-28T09:05:11.068Z,10.80
2019-04-28T09:07:42.894Z,10.80
2019-04-28T09:10:14.771Z,10.80
2019-04-28T09:12:46.047Z,10.80
2019-04-28T09:15:17.569Z,10.80
2019-04-28T09:17:49.221Z,10.70
2019-04-28T09:20:20.805Z,10.80
2019-04-28T09:22:52.097Z,10.90
2019-04-28T09:25:24.121Z,11.00
2019-04-28T09:27:56.458Z,11.10
2019-04-28T09:30:27.741Z,11.10
2019-04-28T09:32:59.335Z,11.20
2019-04-28T09:35:30.898Z,11.30
2019-04-28T09:38:02.750Z,11.40
2019-04-28T09:40:34.859Z,11.40
2019-04-28T09:43:19.532Z,11.40
2019-04-28T09:46:02.287Z,11.50
2019-04-28T09:48:33.909Z,11.50
2019-04-28T09:51:06.167Z,11.40
2019-04-28T09:53:37.775Z,11.50
2019-04-28T09:56:09.071Z,11.50
2019-04-28T09:58:40.340Z,11.60
2019-04-28T10:01:11.648Z,11.60
2019-04-28T10:03:44.471Z,11.70
2019-04-28T10:06:15.701Z,11.70
2019-04-28T10:08:47.247Z,11.70
2019-04-28T10:11:30.034Z,11.80
2019-04-28T10:13:51.717Z,11.80
2019-04-28T10:16:23.280Z,11.80
2019-04-28T10:18:54.480Z,11.80
2019-04-28T10:21:26.444Z,11.80
2019-04-28T10:23:57.627Z,11.80
2019-04-28T10:26:29.590Z,11.80
2019-04-28T10:29:01.273Z,11.80
2019-04-28T10:31:32.814Z,11.90
2019-04-28T10:34:05.264Z,12.00
2019-04-28T10:36:36.817Z,12.20
2019-04-28T10:39:25.794Z,12.30
2019-04-28T10:41:56.997Z,12.40
2019-04-28T10:44:29.890Z,12.30
2019-04-28T10:47:01.196Z,12.30
2019-04-28T10:49:33.100Z,12.30
2019-04-28T10:52:04.675Z,12.30
2019-04-28T10:54:36.842Z,12.40
2019-04-28T10:57:09.047Z,12.40
2019-04-28T10:59:40.835Z,12.40
2019-04-28T11:02:12.124Z,12.50
2019-04-28T11:05:07.432Z,12.50
2019-04-28T11:07:28.542Z,12.60
2019-04-28T11:10:20.116Z,12.60
2019-04-28T11:12:51.524Z,12.70
2019-04-28T11:15:33.197Z,12.80
2019-04-28T11:18:06.349Z,12.70
2019-04-28T11:20:37.893Z,12.70
2019-04-28T11:23:09.450Z,12.70
2019-04-28T11:25:41.472Z,12.70
2019-04-28T11:28:12.911Z,12.60
2019-04-28T11:30:44.597Z,12.60
2019-04-28T11:33:35.150Z,12.60
2019-04-28T11:36:07.442Z,12.60
2019-04-28T11:38:39.977Z,12.60
2019-04-28T11:41:12.322Z,12.70
2019-04-28T11:43:44.252Z,12.60
2019-04-28T11:46:17.949Z,12.50
2019-04-28T11:48:49.747Z,12.50
2019-04-28T11:51:21.226Z,12.50
2019-04-28T11:53:52.870Z,12.40
2019-04-28T11:56:24.866Z,12.40
2019-04-28T11:58:56.180Z,12.40
2019-04-28T12:01:27.937Z,12.30
2019-04-28T12:04:01.882Z,12.30
2019-04-28T12:06:33.570Z,12.20
2019-04-28T12:09:24.279Z,12.20
2019-04-28T12:11:56.261Z,12.20
2019-04-28T12:14:32.421Z,12.20
2019-04-28T12:17:17.502Z,12.30
2019-04-28T12:20:07.720Z,12.30
2019-04-28T12:22:39.371Z,12.40
2019-04-28T12:25:10.736Z,12.50
2019-04-28T12:27:42.327Z,12.60
2019-04-28T12:30:13.831Z,12.60
2019-04-28T12:32:45.100Z,12.70
2019-04-28T12:35:18.538Z,12.70
2019-04-28T12:37:50.163Z,12.80
2019-04-28T12:40:22.654Z,12.80
2019-04-28T12:42:54.817Z,12.80
2019-04-28T12:45:34.796Z,12.70
2019-04-28T12:47:59.996Z,12.70
2019-04-28T12:50:56.572Z,12.70
2019-04-28T12:53:28.658Z,12.60
2019-04-28T12:56:00.050Z,12.50
2019-04-28T12:58:31.338Z,12.60
2019-04-28T13:01:26.558Z,12.60
2019-04-28T13:04:15.856Z,12.60
2019-04-28T13:07:04.219Z,12.70
2019-04-28T13:09:35.978Z,12.80
2019-04-28T13:12:07.681Z,12.70
2019-04-28T13:14:39.191Z,12.70
2019-04-28T13:17:10.601Z,12.70
2019-04-28T13:19:42.151Z,12.60
2019-04-28T13:22:14.025Z,12.60
2019-04-28T13:24:45.551Z,12.60
2019-04-28T13:27:16.950Z,12.60
2019-04-28T13:29:48.223Z,12.60
2019-04-28T13:32:20.225Z,12.60
2019-04-28T13:34:51.493Z,12.60
2019-04-28T13:37:23.514Z,12.60
2019-04-28T13:39:59.303Z,12.60
2019-04-28T13:42:30.963Z,12.60
2019-04-28T13:45:05.626Z,12.60
2019-04-28T13:47:37.302Z,12.60
2019-04-28T13:50:40.949Z,12.70
2019-04-28T13:53:12.677Z,12.70
2019-04-28T13:56:01.462Z,12.70
2019-04-28T13:58:52.690Z,12.70
2019-04-28T14:01:48.973Z,12.70
2019-04-28T14:04:43.653Z,12.70
2019-04-28T14:07:14.906Z,12.70
2019-04-28T14:09:46.838Z,12.80
2019-04-28T14:12:18.191Z,12.90
2019-04-28T14:14:50.098Z,12.90
2019-04-28T14:17:21.740Z,12.90
2019-04-28T14:19:53.399Z,12.90
2019-04-28T14:22:25.322Z,12.80
2019-04-28T14:24:56.555Z,12.70
2019-04-28T14:27:27.806Z,12.70
2019-04-28T14:29:59.036Z,12.70
2019-04-28T14:32:30.754Z,12.80
2019-04-28T14:35:02.089Z,12.80
2019-04-28T14:37:34.997Z,12.70
2019-04-28T14:40:06.741Z,12.60
2019-04-28T14:42:38.416Z,12.60
2019-04-28T14:45:10.639Z,12.50
2019-04-28T14:47:42.221Z,12.50
2019-04-28T14:50:14.007Z,12.50
2019-04-28T14:52:46.749Z,12.40
2019-04-28T14:55:18.283Z,12.40
2019-04-28T14:57:50.224Z,12.40
2019-04-28T15:00:26.269Z,12.40
2019-04-28T15:03:01.733Z,12.40
2019-04-28T15:05:43.269Z,12.50
2019-04-28T15:08:42.493Z,12.50
2019-04-28T15:11:40.425Z,12.60
2019-04-28T15:14:11.737Z,12.60
2019-04-28T15:16:43.851Z,12.50
2019-04-28T15:19:15.880Z,12.50
2019-04-28T15:21:48.548Z,12.40
2019-04-28T15:24:20.535Z,12.40
2019-04-28T15:26:52.278Z,12.40
2019-04-28T15:29:24.381Z,12.40
2019-04-28T15:31:56.386Z,12.30
2019-04-28T15:34:28.134Z,12.30
2019-04-28T15:37:09.513Z,12.20
2019-04-28T15:39:33.806Z,12.20
2019-04-28T15:42:05.249Z,12.20
2019-04-28T15:44:36.582Z,12.20
2019-04-28T15:47:08.626Z,12.30
2019-04-28T15:49:39.996Z,12.30
2019-04-28T15:52:12.386Z,12.40
2019-04-28T15:54:43.699Z,12.40
2019-04-28T15:57:15.961Z,12.40
2019-04-28T15:59:47.685Z,12.40
2019-04-28T16:02:19.356Z,12.40
2019-04-28T16:04:52.568Z,12.30
2019-04-28T16:07:24.956Z,12.30
2019-04-28T16:09:56.646Z,12.30
2019-04-28T16:12:28.337Z,12.30
2019-04-28T16:14:59.987Z,12.30
2019-04-28T16:17:31.710Z,12.30
2019-04-28T16:20:03.037Z,12.30
2019-04-28T16:22:34.820Z,12.30
2019-04-28T16:25:06.276Z,12.40
2019-04-28T16:27:37.574Z,12.40
2019-04-28T16:30:10.186Z,12.50
2019-04-28T16:32:41.822Z,12.50
2019-04-28T16:35:13.068Z,12.50
2019-04-28T16:37:44.289Z,12.40
2019-04-28T16:40:16.043Z,12.40
2019-04-28T16:43:01.036Z,12.30
2019-04-28T16:45:33.287Z,12.30
2019-04-28T16:48:04.894Z,12.30
2019-04-28T16:50:36.828Z,12.30
2019-04-28T16:53:09.305Z,12.30
2019-04-28T16:56:00.965Z,12.20
2019-04-28T16:59:00.390Z,12.20
2019-04-28T17:01:48.431Z,12.20
2019-04-28T17:04:19.658Z,12.20
2019-04-28T17:06:52.355Z,12.20
2019-04-28T17:09:24.681Z,12.20
2019-04-28T17:54:38.218Z,11.60
2019-04-28T17:57:11.785Z,11.50
2019-04-28T17:59:45.957Z,11.40
2019-04-28T18:02:40.691Z,11.40
2019-04-28T18:05:31.950Z,11.30
2019-04-28T18:08:06.046Z,11.30
2019-04-28T18:10:44.450Z,11.30
2019-04-28T18:13:18.678Z,11.30
2019-04-28T18:16:09.348Z,11.40
2019-04-28T18:18:49.115Z,11.40
2019-04-28T18:21:23.172Z,11.40
2019-04-28T18:24:24.573Z,11.30
2019-04-28T18:27:31.550Z,11.20
2019-04-28T18:30:46.477Z,11.20
2019-04-28T18:33:42.425Z,11.10
2019-04-28T18:36:34.042Z,11.10
2019-04-28T18:39:40.959Z,11.00
2019-04-28T18:42:33.250Z,11.10
2019-04-28T18:45:08.069Z,11.20
2019-04-28T18:47:49.616Z,11.20
2019-04-28T18:54:03.762Z,11.20
2019-04-28T18:57:03.109Z,11.10
2019-04-28T18:59:51.962Z,11.20
2019-04-28T19:02:56.716Z,11.10
2019-04-28T19:05:44.429Z,11.20
2019-04-28T19:09:07.539Z,11.10
2019-04-28T19:11:53.784Z,11.10
2019-04-28T19:14:47.779Z,11.20
2019-04-28T19:17:42.415Z,11.30
2019-04-28T19:20:26.958Z,11.30
2019-04-28T19:23:04.556Z,11.30
2019-04-28T19:25:42.861Z,11.30
2019-04-28T19:28:17.486Z,11.20
2019-04-28T19:30:51.810Z,11.30
2019-04-28T19:33:32.919Z,11.50
2019-04-28T19:36:10.064Z,11.50
2019-04-28T19:40:03.121Z,11.60
2019-04-28T19:45:33.680Z,11.60
2019-04-28T19:48:26.739Z,11.70
2019-04-28T19:51:33.085Z,11.60
2019-04-28T19:54:30.283Z,11.70
2019-04-28T19:57:55.452Z,11.70
2019-04-28T20:00:45.691Z,11.70
2019-04-28T20:03:28.186Z,11.70
2019-04-28T20:06:17.386Z,11.70
2019-04-28T20:08:58.759Z,11.70
2019-04-28T20:11:37.332Z,11.80
2019-04-28T20:14:40.618Z,11.80
2019-04-28T20:17:24.878Z,11.90
2019-04-28T20:20:05.849Z,11.90
2019-04-28T20:22:44.365Z,11.90
2019-04-28T20:25:46.467Z,11.90
2019-04-28T20:28:31.302Z,11.90
2019-04-28T20:31:17.726Z,11.80
2019-04-28T20:33:57.155Z,11.80
2019-04-28T20:36:53.731Z,11.80
2019-04-28T20:39:41.267Z,11.90
2019-04-28T20:42:33.837Z,12.00
2019-04-28T20:45:09.518Z,12.10
2019-04-28T20:47:44.133Z,12.10
2019-04-28T20:50:16.700Z,12.00
2019-04-28T20:52:53.417Z,12.00
2019-04-28T20:55:28.393Z,12.00
2019-04-28T20:58:01.800Z,11.90
2019-04-28T21:00:33.945Z,11.90
2019-04-28T21:03:09.147Z,11.80
2019-04-28T21:05:47.239Z,11.80
2019-04-28T21:08:26.420Z,11.90
2019-04-28T21:11:11.563Z,12.00
2019-04-28T21:14:01.671Z,12.00
2019-04-28T21:17:06.311Z,11.90
2019-04-28T21:20:22.802Z,11.90
2019-04-28T21:22:55.234Z,11.90
2019-04-28T21:25:46.997Z,11.90
2019-04-28T21:28:21.993Z,11.90
2019-04-28T21:31:05.361Z,12.00
2019-04-28T21:34:07.860Z,12.00
2019-04-28T21:36:54.791Z,12.10
2019-04-28T21:39:32.547Z,12.20
2019-04-28T21:42:25.944Z,12.10
2019-04-28T21:45:31.138Z,12.20
2019-04-28T21:48:16.937Z,12.10
2019-04-28T21:51:11.679Z,12.00
2019-04-28T21:54:01.895Z,12.00
2019-04-28T21:56:47.090Z,11.90
2019-04-28T21:59:32.621Z,11.90
2019-04-28T22:02:04.308Z,12.00
2019-04-28T22:04:52.917Z,12.00
2019-04-28T22:07:36.600Z,12.00
2019-04-28T22:10:44.361Z,12.00
2019-04-28T22:13:31.235Z,11.90
2019-04-28T22:16:14.306Z,11.70
2019-04-28T22:18:55.563Z,11.60
2019-04-28T22:21:45.461Z,11.70
2019-04-28T22:24:46.667Z,11.80
2019-04-28T22:27:32.931Z,11.90
2019-04-28T22:30:15.371Z,11.80
2019-04-28T22:33:02.901Z,11.80
2019-04-28T22:35:42.348Z,11.70
2019-04-28T22:38:32.380Z,11.60
2019-04-28T22:41:25.169Z,11.70
2019-04-28T22:43:59.580Z,11.70
2019-04-28T22:46:51.911Z,11.80
2019-04-28T22:49:36.078Z,11.90
2019-04-28T22:52:21.558Z,11.90
2019-04-28T22:55:16.563Z,12.00
2019-04-28T22:58:19.623Z,12.00
2019-04-28T23:01:38.180Z,11.90
2019-04-28T23:04:36.495Z,11.90
2019-04-28T23:07:13.334Z,11.70
2019-04-28T23:10:05.667Z,11.70
2019-04-28T23:12:37.495Z,11.70
2019-04-28T23:15:09.795Z,11.70
2019-04-28T23:20:46.398Z,11.80
2019-04-28T23:23:30.961Z,11.70
2019-04-28T23:26:03.229Z,11.80
2019-04-28T23:29:13.182Z,11.70
2019-04-28T23:32:08.893Z,11.80
2019-04-28T23:34:44.162Z,11.80
2019-04-28T23:37:51.894Z,11.80
2019-04-28T23:40:31.408Z,11.70
2019-04-28T23:43:22.076Z,11.50
2019-04-28T23:46:04.183Z,11.50
2019-04-28T23:51:39.943Z,11.50
2019-04-28T23:54:11.975Z,11.50
2019-04-28T23:56:43.199Z,11.50
2019-04-28T23:59:14.955Z,11.50
